Погода Пхонсгхалина неделю

Луангпхабанг, Лаос

04 - 10 марта
  • 04марта
    Сегодня
    +11°
    +25°
    Ясно и безоблачно
    ВремяПогодаТемператураВлажностьДавлениеВетер, м/сВероятность осадков
    01:00Ясно и безоблачно+13°C70 %627 мм1.7 м/с2 %
    04:00Ясно и безоблачно+13°C67 %627 мм1.7 м/с2 %
    07:00Ясно и безоблачно+12°C74 %628 мм1.9 м/с2 %
    10:00Ясно и безоблачно+17°C53 %630 мм1.9 м/с2 %
    13:00Ясно и безоблачно+23°C28 %630 мм4.6 м/с2 %
    16:00Ясно и безоблачно+25°C27 %629 мм4.0 м/с2 %
    19:00Ясно и безоблачно+18°C49 %627 мм1.7 м/с2 %
    22:00Ясно и безоблачно+16°C52 %628 мм2.0 м/с2 %
  • 05марта
    Вторник
    +11°
    +25°
    Ясно и безоблачно
    ВремяПогодаТемператураВлажностьДавлениеВетер, м/сВероятность осадков
    01:00Ясно и безоблачно+13°C49 %627 мм1.3 м/с2 %
    04:00Ясно и безоблачно+13°C54 %627 мм1.3 м/с2 %
    07:00Ясно и безоблачно+12°C59 %627 мм1.1 м/с2 %
    10:00Ясно и безоблачно+17°C42 %630 мм1.6 м/с2 %
    13:00Ясно и безоблачно+23°C25 %631 мм4.1 м/с2 %
    16:00Ясно и безоблачно+24°C26 %629 мм3.3 м/с2 %
    19:00Ясно и безоблачно+19°C39 %628 мм1.9 м/с2 %
    22:00Ясно и безоблачно+18°C41 %629 мм1.9 м/с2 %
  • 06марта
    Среда
    +10°
    +25°
    Ясно и безоблачно
    ВремяПогодаТемператураВлажностьДавлениеВетер, м/сВероятность осадков
    01:00Ясно и безоблачно+15°C44 %627 мм0.9 м/с2 %
    04:00Ясно и безоблачно+14°C48 %627 мм0.7 м/с2 %
    07:00Ясно и безоблачно+11°C53 %627 мм0.8 м/с2 %
    10:00Ясно и безоблачно+17°C40 %631 мм0.9 м/с2 %
    13:00Ясно и безоблачно+23°C23 %631 мм2.9 м/с2 %
    16:00Ясно и безоблачно+24°C22 %630 мм2.8 м/с2 %
    19:00Ясно и безоблачно+19°C42 %628 мм1.0 м/с2 %
    22:00Ясно и безоблачно+19°C35 %629 мм1.2 м/с2 %
  • 07марта
    Четверг
    +9°
    +26°
    Ясно и безоблачно
    ВремяПогодаТемператураВлажностьДавлениеВетер, м/сВероятность осадков
    01:00Ясно и безоблачно+16°C40 %628 мм0.8 м/с2 %
    04:00Ясно и безоблачно+15°C44 %627 мм0.1 м/с2 %
    07:00Ясно и безоблачно+10°C57 %627 мм0.7 м/с2 %
    10:00Ясно и безоблачно+17°C39 %631 мм0.9 м/с2 %
    13:00Ясно и безоблачно+24°C28 %631 мм1.6 м/с2 %
    16:00Практически безоблачно+26°C30 %630 мм2.1 м/с2 %
    19:00Ясно и безоблачно+22°C42 %629 мм2.1 м/с2 %
    22:00Ясно и безоблачно+17°C57 %629 мм1.6 м/с2 %
  • 08марта
    Пятница
    +10°
    +24°
    Практически безоблачно
    ВремяПогодаТемператураВлажностьДавлениеВетер, м/сВероятность осадков
    01:00Ясно и безоблачно+12°C78 %627 мм1.6 м/с2 %
    04:00Ясно и безоблачно+10°C90 %627 мм1.5 м/с2 %
    07:00Небольшая облачность+10°C95 %629 мм1.5 м/с2 %
    10:00Ясно и безоблачно+14°C66 %632 мм1.5 м/с4 %
    13:00Практически безоблачно+22°C51 %632 мм2.3 м/с12 %
    16:00Небольшая облачность и лёгкий дождик+24°C49 %630 мм2.2 м/с39 %
    19:00Практически безоблачно+18°C71 %628 мм1.2 м/с5 %
    22:00Ясно и безоблачно+17°C64 %629 мм2.0 м/с2 %
Мы используем cookies
Соглашаюсь